KIRS/IRS METAR and TAF weather

Enter ICAO airport designator
Station Type Date Time Source
KIRS METAR 2019/12/16 05:56 UTC NOAA

KIRS 160556Z AUTO 20003KT 2SM -SN OVC019 M03/M05 A3011 RMK AO2 T10321046 11025 21038 410131038


Station Type Date Time Source
KIRS Decoded METAR 2019/12/16 05:56 UTC NOAA

Sturgis, Kirsch Municipal Airport, MI, United States (KIRS) 41-48-46N 085-26-21W
Dec 16, 2019 - 12:56 AM EST / 2019.12.16 0556 UTC
Wind: from the SSW (200 degrees) at 3 MPH (3 KT):0
Visibility: 2 mile(s):0
Sky conditions: overcast
Weather: light snow
Temperature: 26.2 F (-3.2 C)
Dew Point: 23.7 F (-4.6 C)
Relative Humidity: 90%
Pressure (altimeter): 30.11 in. Hg (1019 hPa)
ob: KIRS 160556Z AUTO 20003KT 2SM -SN OVC019 M03/M05 A3011 RMK AO2 T10321046 11025 21038 410131038
cycle: 6

Station Type Date Time Source
KIRS TAF UTC NOAA

Error!

Example: see airport list